Main page
METAR-TAF:

METAR-TAF

Airports :

Tehran, Iran

Tehran Imam Khomeini International Airport

latitude: 35-24-58N, longitude: 51-09-08E, elevation: 1007 m

Current weather observation

The report was made 33 minutes ago, at 20:00 UTC
Wind 4 kt from the Northwest
Temperature 2°C
Humidity 47%
Pressure 1024 hPa
Visibility: 8000 m

METAR: OIIE 182000Z 31004KT 8000 NSC 02/M08 Q1024

Time: 00:03 (20:33 UTC)

Forecast

The report was made 3 hours and 3 minutes ago, at 17:30 UTC
Forecast valid from 18 at 18 UTC to 19 at 24 UTC
Wind 8 kt from the West/Northwest
Visibility: 7000 m

TAF: OIIE 181730Z 1818/1924 30004MPS 7000 NSC

Weather observations and forecasts of more than 4000 airports (METAR and TAF reports).

The available stations are represented by yellow and red dots on the map.

Hover mouse over dot to see the name of the station.

Then click to see weather observations and forecasts.

To change the map : click on the green buttons with a black cross to zoom in, on the green button with a dash to zoom out, or on the green arrows for adjacent maps.


METAR-TAF: